createdAt,value
2022-12-11T00:00:51.029Z,12.02
2022-12-11T00:03:18.597Z,11.82
2022-12-11T00:05:46.454Z,11.20
2022-12-11T00:08:13.987Z,12.02
2022-12-11T00:10:48.305Z,12.48
2022-12-11T00:13:15.354Z,13.13
2022-12-11T00:15:42.260Z,12.25
2022-12-11T00:18:14.073Z,13.55
2022-12-11T00:20:41.174Z,11.82
2022-12-11T00:23:08.322Z,15.57
2022-12-11T00:25:35.417Z,11.70
2022-12-11T00:28:02.270Z,13.27
2022-12-11T00:30:29.149Z,13.63
2022-12-11T00:32:55.986Z,11.75
2022-12-11T00:35:22.964Z,10.45
2022-12-11T00:37:49.837Z,11.20
2022-12-11T00:40:16.804Z,15.30
2022-12-11T00:42:43.648Z,12.35
2022-12-11T00:45:11.797Z,15.65
2022-12-11T00:47:39.113Z,16.55
2022-12-11T00:50:06.650Z,12.43
2022-12-11T00:52:33.611Z,14.60
2022-12-11T00:55:00.890Z,14.55
2022-12-11T00:57:27.836Z,11.55
2022-12-11T00:59:54.733Z,12.15
2022-12-11T01:02:21.647Z,12.43
2022-12-11T01:04:48.592Z,13.45
2022-12-11T01:07:15.605Z,13.63
2022-12-11T01:10:01.173Z,13.38
2022-12-11T01:12:28.826Z,12.50
2022-12-11T01:14:55.901Z,13.82
2022-12-11T01:17:22.807Z,14.80
2022-12-11T01:19:49.694Z,13.82
2022-12-11T01:22:16.550Z,19.15
2022-12-11T01:24:43.483Z,16.42
2022-12-11T01:27:10.416Z,13.45
2022-12-11T01:29:37.351Z,13.80
2022-12-11T01:32:04.411Z,15.82
2022-12-11T01:34:32.363Z,13.32
2022-12-11T01:36:59.803Z,14.85
2022-12-11T01:39:26.652Z,18.52
2022-12-11T01:41:57.969Z,13.63
2022-12-11T01:44:24.785Z,16.10
2022-12-11T01:46:51.913Z,17.17
2022-12-11T01:49:23.075Z,16.67
2022-12-11T01:52:03.410Z,16.50
2022-12-11T01:54:31.522Z,14.80
2022-12-11T01:57:02.729Z,12.75
2022-12-11T01:59:34.089Z,13.73
2022-12-11T02:02:08.208Z,15.13
2022-12-11T02:04:37.694Z,15.38
2022-12-11T02:07:04.679Z,15.35
2022-12-11T02:09:35.418Z,16.20
2022-12-11T02:12:30.705Z,16.98
2022-12-11T02:15:16.289Z,13.70
2022-12-11T02:17:59.470Z,16.65
2022-12-11T02:20:38.485Z,16.10
2022-12-11T02:23:30.598Z,14.32
2022-12-11T02:26:20.063Z,14.27
2022-12-11T02:29:00.974Z,16.73
2022-12-11T02:31:30.189Z,15.45
2022-12-11T02:34:18.458Z,14.50
2022-12-11T02:36:51.325Z,15.68
2022-12-11T02:39:20.318Z,17.02
2022-12-11T02:41:50.345Z,15.15
2022-12-11T02:44:21.560Z,17.70
2022-12-11T02:46:49.359Z,15.68
2022-12-11T02:49:16.501Z,13.60
2022-12-11T02:51:44.415Z,16.27
2022-12-11T02:54:17.931Z,15.57
2022-12-11T02:56:50.437Z,13.55
2022-12-11T02:59:38.433Z,15.38
2022-12-11T03:02:05.940Z,13.90
2022-12-11T03:04:36.239Z,14.77
2022-12-11T03:07:13.932Z,16.85
2022-12-11T03:09:42.983Z,17.45
2022-12-11T03:12:12.772Z,17.48
2022-12-11T03:14:41.729Z,17.63
2022-12-11T03:17:15.230Z,17.70
2022-12-11T03:19:50.108Z,16.52
2022-12-11T03:22:22.673Z,14.73
2022-12-11T03:25:02.202Z,19.88
2022-12-11T03:27:49.179Z,18.35
2022-12-11T03:30:22.722Z,19.98
2022-12-11T03:33:02.830Z,17.48
2022-12-11T03:35:39.140Z,20.38
2022-12-11T03:38:11.519Z,17.98
2022-12-11T03:40:41.715Z,18.77
2022-12-11T03:43:09.609Z,17.77
2022-12-11T03:45:39.168Z,19.15
2022-12-11T03:48:07.368Z,21.90
2022-12-11T03:50:35.304Z,23.88
2022-12-11T03:53:04.748Z,19.83
2022-12-11T03:55:33.646Z,18.70
2022-12-11T03:58:00.740Z,23.13
2022-12-11T04:00:28.204Z,21.38
2022-12-11T04:03:14.229Z,20.48
2022-12-11T04:05:48.617Z,22.38
2022-12-11T04:08:16.564Z,22.67
2022-12-11T04:10:45.047Z,18.33
2022-12-11T04:13:12.044Z,21.15
2022-12-11T04:15:40.177Z,16.52
2022-12-11T04:18:26.876Z,20.60
2022-12-11T04:21:13.845Z,23.10
2022-12-11T04:23:59.521Z,21.98
2022-12-11T04:26:26.514Z,24.00
2022-12-11T04:28:53.380Z,20.15
2022-12-11T04:31:22.141Z,21.08
2022-12-11T04:33:49.313Z,21.60
2022-12-11T04:36:16.744Z,21.98
2022-12-11T04:38:43.610Z,22.77
2022-12-11T04:41:13.563Z,22.58
2022-12-11T04:43:40.878Z,21.73
2022-12-11T04:46:15.526Z,18.63
2022-12-11T04:48:42.847Z,21.27
2022-12-11T04:51:10.323Z,22.10
2022-12-11T04:53:37.689Z,19.67
2022-12-11T04:56:09.091Z,22.10
2022-12-11T04:58:36.736Z,18.58
2022-12-11T05:01:32.996Z,18.23
2022-12-11T05:04:00.254Z,19.40
2022-12-11T05:06:27.151Z,25.05
2022-12-11T05:08:54.020Z,21.00
2022-12-11T05:11:20.867Z,23.42
2022-12-11T05:13:47.936Z,17.45
2022-12-11T05:16:16.743Z,18.95
2022-12-11T05:18:43.981Z,19.23
2022-12-11T05:21:12.977Z,23.80
2022-12-11T05:23:40.142Z,16.63
2022-12-11T05:26:10.889Z,22.25
2022-12-11T05:28:39.113Z,21.02
2022-12-11T05:31:09.183Z,21.60
2022-12-11T05:33:36.181Z,23.50
2022-12-11T05:36:03.703Z,23.70
2022-12-11T05:38:30.849Z,21.13
2022-12-11T05:41:06.160Z,20.90
2022-12-11T05:43:35.498Z,19.25
2022-12-11T05:46:11.961Z,20.35
2022-12-11T05:48:40.399Z,18.80
2022-12-11T05:51:08.617Z,21.40
2022-12-11T05:53:38.812Z,20.42
2022-12-11T05:56:11.337Z,20.73
2022-12-11T05:58:38.690Z,17.70
2022-12-11T06:01:10.855Z,22.73
2022-12-11T06:03:38.398Z,18.70
2022-12-11T06:06:06.490Z,20.50
2022-12-11T06:08:34.646Z,20.23
2022-12-11T06:11:02.274Z,20.45
2022-12-11T06:13:29.240Z,18.83
2022-12-11T06:16:01.455Z,22.20
2022-12-11T06:18:28.420Z,23.38
2022-12-11T06:20:55.468Z,19.17
2022-12-11T06:23:22.442Z,17.42
2022-12-11T06:25:49.460Z,20.02
2022-12-11T06:28:16.346Z,19.58
2022-12-11T06:30:43.525Z,22.55
2022-12-11T06:33:10.954Z,20.38
2022-12-11T06:35:42.087Z,21.83
2022-12-11T06:38:10.735Z,23.00
2022-12-11T06:40:38.318Z,21.52
2022-12-11T06:43:05.409Z,19.67
2022-12-11T06:45:32.354Z,22.52
2022-12-11T06:47:59.255Z,21.05
2022-12-11T06:50:26.421Z,22.95
2022-12-11T06:52:53.413Z,21.25
2022-12-11T06:55:20.472Z,22.80
2022-12-11T06:57:47.386Z,20.08
2022-12-11T07:00:14.990Z,22.60
2022-12-11T07:02:41.896Z,20.23
2022-12-11T07:05:09.386Z,19.42
2022-12-11T07:07:36.663Z,17.73
2022-12-11T07:10:08.232Z,21.92
2022-12-11T07:12:36.251Z,23.58
2022-12-11T07:15:04.706Z,21.60
2022-12-11T07:17:32.443Z,19.48
2022-12-11T07:19:59.318Z,23.00
2022-12-11T07:22:26.271Z,21.15
2022-12-11T07:24:53.117Z,19.83
2022-12-11T07:27:20.199Z,22.38
2022-12-11T07:29:47.099Z,19.08
2022-12-11T07:32:14.565Z,22.35
2022-12-11T07:34:41.578Z,22.70
2022-12-11T07:37:08.526Z,23.27
2022-12-11T07:39:35.397Z,25.60
2022-12-11T07:42:02.311Z,25.25
2022-12-11T07:44:29.427Z,20.48
2022-12-11T07:46:56.335Z,18.95
2022-12-11T07:49:23.228Z,21.38
2022-12-11T07:51:50.157Z,19.83
2022-12-11T07:54:18.194Z,19.67
2022-12-11T07:56:51.162Z,21.48
2022-12-11T07:59:21.207Z,22.77
2022-12-11T08:01:48.325Z,22.65
2022-12-11T08:04:15.958Z,19.33
2022-12-11T08:06:43.762Z,22.10
2022-12-11T08:09:20.689Z,19.92
2022-12-11T08:11:51.838Z,21.42
2022-12-11T08:14:20.429Z,19.90
2022-12-11T08:16:47.880Z,22.58
2022-12-11T08:19:15.307Z,20.85
2022-12-11T08:21:42.362Z,21.45
2022-12-11T08:24:10.185Z,18.98
2022-12-11T08:26:37.109Z,18.77
2022-12-11T08:29:04.839Z,19.67
2022-12-11T08:31:33.264Z,19.27
2022-12-11T08:34:00.345Z,16.92
2022-12-11T08:36:27.448Z,19.23
2022-12-11T08:38:55.939Z,20.15
2022-12-11T08:41:29.229Z,19.17
2022-12-11T08:43:58.184Z,17.77
2022-12-11T08:46:30.909Z,19.70
2022-12-11T08:48:58.651Z,19.83
2022-12-11T08:51:27.952Z,21.58
2022-12-11T08:54:00.059Z,20.10
2022-12-11T08:56:28.371Z,20.83
2022-12-11T08:58:56.025Z,17.63
2022-12-11T09:01:25.853Z,19.35
2022-12-11T09:03:54.708Z,22.63
2022-12-11T09:06:23.290Z,22.10
2022-12-11T09:08:52.979Z,20.30
2022-12-11T09:11:26.759Z,20.10
2022-12-11T09:13:54.502Z,21.27
2022-12-11T09:16:24.094Z,24.60
2022-12-11T09:18:54.038Z,21.50
2022-12-11T09:21:25.075Z,20.52
2022-12-11T09:23:58.003Z,19.27
2022-12-11T09:26:26.220Z,18.50
2022-12-11T09:28:54.109Z,20.02
2022-12-11T09:31:25.302Z,20.15
2022-12-11T09:33:55.246Z,24.17
2022-12-11T09:36:22.811Z,21.48
2022-12-11T09:38:49.891Z,22.38
2022-12-11T09:41:22.605Z,22.35
2022-12-11T09:44:16.435Z,19.20
2022-12-11T09:46:45.103Z,18.98
2022-12-11T09:49:44.043Z,17.92
2022-12-11T09:52:27.293Z,18.65
2022-12-11T09:55:00.816Z,19.85
2022-12-11T09:57:31.846Z,20.80
2022-12-11T10:00:08.395Z,20.02
2022-12-11T10:02:53.410Z,21.30
2022-12-11T10:05:32.294Z,21.60
2022-12-11T10:08:22.850Z,21.60
2022-12-11T10:11:12.590Z,20.17
2022-12-11T10:13:42.325Z,23.75
2022-12-11T10:16:34.165Z,22.38
2022-12-11T10:19:01.330Z,21.33
2022-12-11T10:21:36.077Z,22.85
2022-12-11T10:24:09.649Z,20.33
2022-12-11T10:26:39.638Z,19.67
2022-12-11T10:29:14.459Z,21.92
2022-12-11T10:31:57.420Z,21.50
2022-12-11T10:34:42.300Z,18.73
2022-12-11T10:37:09.192Z,22.80
2022-12-11T10:39:36.306Z,22.52
2022-12-11T10:42:18.362Z,18.30
2022-12-11T10:45:02.907Z,22.73
2022-12-11T10:47:30.100Z,23.73
2022-12-11T10:49:59.614Z,20.02
2022-12-11T10:52:39.023Z,21.77
2022-12-11T10:55:29.401Z,24.88
2022-12-11T10:58:00.851Z,22.50
2022-12-11T11:00:40.657Z,23.77
2022-12-11T11:03:28.196Z,17.75
2022-12-11T11:06:25.986Z,18.42
2022-12-11T11:08:55.714Z,19.70
2022-12-11T11:11:38.065Z,21.30
2022-12-11T11:14:07.479Z,20.73
2022-12-11T11:16:39.291Z,19.63
2022-12-11T11:19:07.436Z,16.88
2022-12-11T11:21:35.949Z,22.35
2022-12-11T11:24:03.918Z,18.70
2022-12-11T11:27:04.312Z,27.63
2022-12-11T11:29:30.597Z,22.58
2022-12-11T11:32:02.425Z,20.30
2022-12-11T11:34:31.095Z,20.48
2022-12-11T11:37:00.969Z,30.92
2022-12-11T11:39:35.950Z,25.80
2022-12-11T11:42:13.601Z,19.27
2022-12-11T11:45:16.884Z,17.33
2022-12-11T11:47:56.416Z,21.10
2022-12-11T11:50:28.354Z,19.67
2022-12-11T11:53:09.473Z,26.13
2022-12-11T11:55:45.066Z,17.73
2022-12-11T11:58:27.704Z,19.50
2022-12-11T12:00:55.214Z,15.65
2022-12-11T12:03:24.221Z,17.20
2022-12-11T12:06:04.285Z,21.13
2022-12-11T12:08:34.127Z,19.15
2022-12-11T12:11:17.252Z,19.27
2022-12-11T12:13:55.154Z,17.58
2022-12-11T12:16:52.607Z,17.55
2022-12-11T12:19:22.722Z,18.60
2022-12-11T12:21:53.111Z,19.98
2022-12-11T12:24:37.519Z,20.00
2022-12-11T12:27:51.077Z,23.33
2022-12-11T12:30:22.091Z,20.70
2022-12-11T12:33:30.504Z,18.45
2022-12-11T12:36:21.721Z,21.25
2022-12-11T12:39:11.068Z,18.20
2022-12-11T12:42:03.964Z,21.23
2022-12-11T12:45:01.199Z,16.83
2022-12-11T12:47:32.586Z,17.73
2022-12-11T12:50:01.001Z,20.08
2022-12-11T12:52:39.556Z,17.90
2022-12-11T12:55:28.963Z,17.15
2022-12-11T12:58:06.973Z,18.73
2022-12-11T13:00:37.972Z,21.90
2022-12-11T13:03:20.330Z,19.48
2022-12-11T13:06:06.109Z,22.70
2022-12-11T13:08:51.813Z,21.30
2022-12-11T13:11:21.100Z,20.80
2022-12-11T13:14:01.425Z,26.70
2022-12-11T13:16:37.185Z,19.80
2022-12-11T13:19:28.440Z,19.98
2022-12-11T13:22:02.169Z,22.02
2022-12-11T13:24:31.980Z,20.15
2022-12-11T13:27:10.803Z,23.10
2022-12-11T13:29:42.448Z,24.00
2022-12-11T13:32:12.769Z,21.95
2022-12-11T13:34:42.945Z,20.10
2022-12-11T13:37:37.014Z,21.17
2022-12-11T13:40:28.207Z,21.88
2022-12-11T13:43:02.954Z,20.73
2022-12-11T13:45:40.745Z,20.08
2022-12-11T13:48:28.778Z,23.00
2022-12-11T13:50:57.570Z,20.58
2022-12-11T13:53:24.540Z,22.25
2022-12-11T13:56:04.873Z,22.52
2022-12-11T13:58:35.658Z,22.65
2022-12-11T14:01:17.119Z,24.20
2022-12-11T14:04:07.554Z,21.73
2022-12-11T14:06:36.998Z,19.27
2022-12-11T14:09:05.551Z,22.63
2022-12-11T14:11:42.010Z,22.58
2022-12-11T14:14:26.245Z,22.90
2022-12-11T14:16:53.680Z,23.55
2022-12-11T14:19:22.379Z,21.02
2022-12-11T14:21:57.562Z,22.00
2022-12-11T14:24:24.723Z,20.52
2022-12-11T14:26:53.673Z,21.55
2022-12-11T14:29:32.353Z,22.88
2022-12-11T14:32:06.505Z,22.88
2022-12-11T14:34:44.485Z,26.80
2022-12-11T14:37:15.855Z,21.60
2022-12-11T14:39:53.685Z,23.48
2022-12-11T14:42:23.841Z,17.60
2022-12-11T14:44:56.443Z,20.88
2022-12-11T14:47:27.316Z,22.58
2022-12-11T14:50:02.697Z,20.92
2022-12-11T14:52:47.214Z,21.13
2022-12-11T14:55:23.001Z,22.95
2022-12-11T14:57:55.266Z,19.50
2022-12-11T15:00:23.850Z,18.95
2022-12-11T15:03:02.195Z,18.02
2022-12-11T15:05:33.412Z,17.45
2022-12-11T15:08:25.009Z,14.95
2022-12-11T15:11:04.228Z,18.00
2022-12-11T15:13:32.612Z,25.48
2022-12-11T15:16:00.504Z,16.92
2022-12-11T15:18:35.365Z,17.90
2022-12-11T15:21:12.030Z,16.27
2022-12-11T15:23:53.669Z,16.00
2022-12-11T15:26:32.069Z,18.02
2022-12-11T15:29:05.547Z,15.05
2022-12-11T15:31:35.220Z,15.48
2022-12-11T15:34:02.441Z,14.55
2022-12-11T15:36:36.710Z,16.85
2022-12-11T15:39:05.837Z,13.50
2022-12-11T15:41:34.757Z,13.93
2022-12-11T15:44:03.670Z,15.32
2022-12-11T15:46:35.278Z,13.68
2022-12-11T15:49:02.286Z,16.88
2022-12-11T15:51:29.221Z,14.40
2022-12-11T15:53:56.378Z,15.27
2022-12-11T15:56:23.368Z,14.50
2022-12-11T15:58:50.505Z,15.95
2022-12-11T16:01:17.854Z,15.60
2022-12-11T16:03:45.807Z,33.90
2022-12-11T16:06:14.107Z,15.75
2022-12-11T16:08:41.075Z,17.42
2022-12-11T16:11:09.367Z,16.55
2022-12-11T16:13:36.249Z,16.85
2022-12-11T16:16:03.257Z,14.32
2022-12-11T16:18:30.227Z,16.65
2022-12-11T16:20:57.418Z,14.80
2022-12-11T16:23:24.277Z,17.55
2022-12-11T16:25:51.838Z,17.05
2022-12-11T16:28:21.289Z,20.52
2022-12-11T16:30:48.400Z,15.10
2022-12-11T16:33:15.518Z,13.77
2022-12-11T16:35:42.949Z,15.93
2022-12-11T16:38:10.803Z,19.58
2022-12-11T16:40:38.314Z,18.52
2022-12-11T16:43:05.458Z,15.68
2022-12-11T16:45:33.657Z,17.13
2022-12-11T16:48:04.054Z,20.08
2022-12-11T16:50:32.204Z,17.98
2022-12-11T16:52:59.377Z,19.20
2022-12-11T16:55:26.473Z,17.15
2022-12-11T16:57:54.213Z,23.02
2022-12-11T17:00:21.211Z,19.80
2022-12-11T17:02:48.631Z,19.95
2022-12-11T17:05:15.663Z,17.30
2022-12-11T17:07:42.609Z,19.10
2022-12-11T17:10:09.697Z,19.95
2022-12-11T17:12:36.812Z,20.45
2022-12-11T17:15:03.902Z,20.10
2022-12-11T17:17:31.165Z,22.23
2022-12-11T17:19:58.126Z,22.15
2022-12-11T17:22:25.264Z,20.75
2022-12-11T17:24:52.194Z,21.20
2022-12-11T17:27:19.454Z,17.38
2022-12-11T17:29:49.424Z,20.63
2022-12-11T17:32:17.596Z,17.73
2022-12-11T17:34:45.286Z,21.77
2022-12-11T17:37:12.444Z,21.48
2022-12-11T17:39:39.329Z,19.85
2022-12-11T17:42:06.446Z,26.48
2022-12-11T17:44:33.544Z,21.02
2022-12-11T17:47:02.642Z,26.08
2022-12-11T17:49:33.110Z,21.30
2022-12-11T17:52:00.048Z,22.45
2022-12-11T17:54:26.947Z,20.50
2022-12-11T17:56:53.848Z,19.77
2022-12-11T17:59:20.766Z,22.25
2022-12-11T18:01:47.680Z,21.67
2022-12-11T18:04:14.720Z,20.77
2022-12-11T18:06:41.784Z,21.95
2022-12-11T18:09:08.846Z,21.45
2022-12-11T18:11:35.816Z,23.42
2022-12-11T18:14:02.772Z,20.38
2022-12-11T18:16:36.750Z,23.70
2022-12-11T18:19:04.914Z,22.83
2022-12-11T18:21:34.824Z,23.13
2022-12-11T18:24:02.673Z,22.80
2022-12-11T18:26:29.616Z,23.38
2022-12-11T18:28:56.663Z,22.83
2022-12-11T18:31:24.172Z,24.95
2022-12-11T18:33:51.728Z,22.05
2022-12-11T18:36:20.036Z,20.15
2022-12-11T18:38:47.945Z,20.45
2022-12-11T18:41:16.336Z,20.15
2022-12-11T18:43:43.364Z,23.42
2022-12-11T18:46:14.342Z,20.13
2022-12-11T18:48:43.081Z,22.42
2022-12-11T18:51:21.738Z,19.42
2022-12-11T18:53:50.372Z,22.63
2022-12-11T18:56:19.076Z,20.85
2022-12-11T18:58:47.223Z,24.70
2022-12-11T19:01:23.443Z,19.77
2022-12-11T19:03:54.515Z,18.15
2022-12-11T19:06:28.625Z,19.90
2022-12-11T19:08:56.303Z,23.60
2022-12-11T19:11:25.380Z,19.48
2022-12-11T19:13:54.844Z,17.63
2022-12-11T19:16:24.511Z,22.90
2022-12-11T19:18:51.747Z,21.92
2022-12-11T19:21:19.091Z,17.98
2022-12-11T19:23:46.791Z,22.58
2022-12-11T19:26:16.883Z,20.55
2022-12-11T19:28:43.930Z,22.73
2022-12-11T19:31:17.873Z,20.25
2022-12-11T19:33:46.740Z,18.17
2022-12-11T19:36:16.927Z,18.92
2022-12-11T19:38:45.286Z,21.45
2022-12-11T19:41:18.503Z,22.52
2022-12-11T19:43:45.581Z,17.08
2022-12-11T19:46:13.050Z,20.00
2022-12-11T19:48:41.755Z,20.88
2022-12-11T19:51:13.682Z,18.85
2022-12-11T19:53:42.196Z,20.75
2022-12-11T19:56:10.386Z,19.02
2022-12-11T19:58:37.588Z,20.50
2022-12-11T20:01:05.051Z,18.13
2022-12-11T20:03:32.236Z,18.27
2022-12-11T20:06:08.757Z,16.63
2022-12-11T20:08:44.691Z,19.77
2022-12-11T20:11:17.842Z,19.52
2022-12-11T20:13:46.895Z,18.65
2022-12-11T20:16:15.741Z,16.52
2022-12-11T20:18:42.951Z,20.23
2022-12-11T20:21:13.788Z,17.42
2022-12-11T20:23:41.906Z,21.05
2022-12-11T20:26:11.049Z,16.92
2022-12-11T20:28:38.567Z,15.48
2022-12-11T20:31:16.424Z,19.38
2022-12-11T20:33:47.169Z,20.15
2022-12-11T20:36:15.859Z,23.77
2022-12-11T20:38:43.495Z,23.00
2022-12-11T20:41:12.852Z,25.10
2022-12-11T20:43:40.443Z,24.65
2022-12-11T20:46:09.287Z,23.92
2022-12-11T20:48:39.263Z,21.88
2022-12-11T20:51:07.743Z,25.98
2022-12-11T20:53:36.271Z,22.70
2022-12-11T20:56:10.082Z,24.45
2022-12-11T20:58:38.568Z,22.27
2022-12-11T21:01:05.779Z,22.58
2022-12-11T21:03:34.497Z,24.42
2022-12-11T21:06:04.597Z,21.35
2022-12-11T21:08:31.494Z,20.73
2022-12-11T21:10:58.376Z,22.33
2022-12-11T21:13:25.294Z,18.45
2022-12-11T21:15:56.316Z,19.23
2022-12-11T21:18:23.396Z,20.75
2022-12-11T21:20:55.352Z,18.27
2022-12-11T21:23:22.566Z,16.60
2022-12-11T21:25:51.907Z,20.40
2022-12-11T21:28:19.477Z,18.50
2022-12-11T21:30:46.536Z,17.23
2022-12-11T21:33:13.467Z,14.32
2022-12-11T21:35:40.352Z,17.30
2022-12-11T21:38:07.252Z,17.55
2022-12-11T21:40:34.433Z,14.70
2022-12-11T21:43:01.463Z,18.77
2022-12-11T21:48:15.323Z,17.58
2022-12-11T21:50:42.881Z,18.90
2022-12-11T21:53:10.031Z,16.08
2022-12-11T21:55:41.270Z,15.98
2022-12-11T21:58:09.189Z,18.63
2022-12-11T22:00:38.952Z,18.30
2022-12-11T22:03:06.242Z,18.70
2022-12-11T22:05:33.511Z,16.50
2022-12-11T22:08:00.488Z,19.98
2022-12-11T22:10:28.964Z,16.83
2022-12-11T22:12:56.029Z,20.38
2022-12-11T22:15:22.978Z,18.85
2022-12-11T22:17:50.189Z,15.60
2022-12-11T22:20:18.227Z,15.90
2022-12-11T22:22:45.321Z,19.45
2022-12-11T22:25:13.093Z,16.27
2022-12-11T22:27:40.291Z,14.43
2022-12-11T22:30:07.929Z,15.30
2022-12-11T22:32:34.923Z,13.38
2022-12-11T22:35:01.795Z,16.42
2022-12-11T22:37:29.323Z,14.55
2022-12-11T22:39:56.249Z,17.08
2022-12-11T22:42:23.316Z,12.98
2022-12-11T22:44:50.207Z,13.60
2022-12-11T22:47:17.090Z,16.65
2022-12-11T22:49:44.003Z,13.68
2022-12-11T22:52:11.020Z,16.45
2022-12-11T22:54:42.436Z,15.63
2022-12-11T22:57:09.450Z,13.25
2022-12-11T22:59:37.097Z,15.10
2022-12-11T23:02:04.216Z,15.15
2022-12-11T23:04:31.214Z,16.23
2022-12-11T23:07:02.050Z,15.85
2022-12-11T23:09:28.996Z,14.23
2022-12-11T23:11:58.530Z,13.27
2022-12-11T23:14:26.111Z,14.45
2022-12-11T23:16:53.017Z,16.73
2022-12-11T23:19:25.315Z,14.40
2022-12-11T23:21:53.305Z,16.10
2022-12-11T23:24:20.200Z,13.55
2022-12-11T23:26:48.173Z,14.60
2022-12-11T23:29:15.241Z,11.55
2022-12-11T23:31:42.120Z,9.77
2022-12-11T23:34:09.009Z,14.25
2022-12-11T23:36:35.947Z,13.82
2022-12-11T23:39:03.196Z,12.55
2022-12-11T23:41:30.122Z,19.10
2022-12-11T23:43:57.034Z,16.00
2022-12-11T23:46:25.140Z,15.88
2022-12-11T23:48:53.520Z,17.00
2022-12-11T23:51:22.559Z,13.13
2022-12-11T23:53:49.658Z,12.10
2022-12-11T23:56:20.316Z,17.00
2022-12-11T23:58:47.323Z,13.63
